KSJT

San Angelo Regional / Mathis Field Airport

San Angelo, Texas, USA
METAR KSJT 231451Z 17009KT 10SM CLR 24/18 A3007 RMK AO2 SLP159 T02440183 51018
Observed Flight Rules
May-23 @ 14:51 UTC (20 minutes ago) Visual Flight Rules
Wind Visibility Clouds
170° at 9 knots 10 miles
  • Clear skies
Temperatures Readings
Current 24°C / 75°F
Dewpoint 18°C / 64°F
Humidity 69%
Altimeter 30.07" Hg
Pressure 1015.9 hPa
Elevation 576
METAR KSJT 231451Z 17009KT 10SM CLR 24/18 A3007 RMK AO2 SLP159 T02440183 51018
Observed Flight Rules
May-23 @ 14:51 UTC
(20 minutes ago)
VFR
Wind Visibility
170° at 9 knots 10 miles
Clouds
  • Clear skies
Temperature Dewpoint
24°C / 75°F 18°C / 64°F
Humidity Altimeter Pressure
69% 30.07" Hg 1015.9 hPa